createdAt,value
2019-02-11T00:01:48.672Z,-0.50
2019-02-11T00:04:18.269Z,-0.40
2019-02-11T00:06:47.876Z,-0.40
2019-02-11T00:09:19.188Z,-0.40
2019-02-11T00:11:48.659Z,-0.40
2019-02-11T00:14:18.922Z,-0.50
2019-02-11T00:16:49.302Z,-0.80
2019-02-11T00:19:18.928Z,-0.80
2019-02-11T00:21:51.076Z,-0.60
2019-02-11T00:24:21.467Z,-0.60
2019-02-11T00:26:51.264Z,-0.60
2019-02-11T00:29:21.349Z,-0.50
2019-02-11T00:31:50.767Z,-0.60
2019-02-11T00:34:21.153Z,-0.50
2019-02-11T00:36:50.764Z,-0.50
2019-02-11T00:39:20.177Z,-0.40
2019-02-11T00:41:49.671Z,-0.40
2019-02-11T00:44:19.386Z,-0.40
2019-02-11T00:46:48.898Z,-0.30
2019-02-11T00:49:18.206Z,-0.30
2019-02-11T00:51:47.932Z,-0.30
2019-02-11T00:54:17.654Z,-0.40
2019-02-11T00:56:47.277Z,-0.40
2019-02-11T00:59:16.833Z,-0.30
2019-02-11T01:01:46.556Z,-0.30
2019-02-11T01:04:18.013Z,-0.20
2019-02-11T01:06:47.694Z,-0.30
2019-02-11T01:09:17.217Z,-0.30
2019-02-11T01:11:46.889Z,-0.30
2019-02-11T01:14:16.453Z,-0.30
2019-02-11T01:16:49.437Z,-0.30
2019-02-11T01:19:20.236Z,-0.30
2019-02-11T01:21:50.477Z,-0.30
2019-02-11T01:24:20.097Z,-0.30
2019-02-11T01:26:52.233Z,-0.30
2019-02-11T01:29:21.872Z,-0.30
2019-02-11T01:31:51.365Z,-0.30
2019-02-11T01:34:20.997Z,-0.40
2019-02-11T01:36:51.415Z,-0.40
2019-02-11T01:39:21.002Z,-0.50
2019-02-11T01:41:50.422Z,-0.50
2019-02-11T01:44:21.246Z,-0.50
2019-02-11T01:46:50.851Z,-0.40
2019-02-11T01:49:20.342Z,-0.40
2019-02-11T01:51:49.871Z,-0.50
2019-02-11T01:54:19.290Z,-0.50
2019-02-11T01:56:49.690Z,-0.40
2019-02-11T01:59:19.102Z,-0.40
2019-02-11T02:01:48.910Z,-0.40
2019-02-11T02:04:19.640Z,-0.40
2019-02-11T02:06:52.175Z,-0.40
2019-02-11T02:09:21.699Z,-0.40
2019-02-11T02:11:51.235Z,-0.40
2019-02-11T02:14:22.541Z,-0.30
2019-02-11T02:16:51.854Z,-0.30
2019-02-11T02:19:21.063Z,-0.40
2019-02-11T02:21:50.479Z,-0.40
2019-02-11T02:24:21.115Z,-0.50
2019-02-11T02:26:50.407Z,-0.50
2019-02-11T02:29:19.828Z,-0.50
2019-02-11T02:31:49.018Z,-0.50
2019-02-11T02:34:19.109Z,-0.40
2019-02-11T02:36:49.012Z,-0.40
2019-02-11T02:39:18.565Z,-0.40
2019-02-11T02:41:48.096Z,-0.30
2019-02-11T02:44:17.723Z,-0.40
2019-02-11T02:46:47.227Z,-0.40
2019-02-11T02:49:16.995Z,-0.40
2019-02-11T02:51:46.333Z,-0.30
2019-02-11T02:54:15.984Z,-0.30
2019-02-11T02:56:45.255Z,-0.30
2019-02-11T02:59:14.695Z,-0.30
2019-02-11T03:01:44.405Z,-0.30
2019-02-11T03:04:14.014Z,-0.30
2019-02-11T03:06:43.498Z,-0.30
2019-02-11T03:09:13.211Z,-0.30
2019-02-11T03:11:42.858Z,-0.20
2019-02-11T03:14:12.367Z,-0.20
2019-02-11T03:16:43.626Z,-0.20
2019-02-11T03:19:13.855Z,-0.20
2019-02-11T03:21:44.121Z,-0.20
2019-02-11T03:24:13.515Z,-0.20
2019-02-11T03:26:43.177Z,-0.20
2019-02-11T03:29:12.546Z,-0.20
2019-02-11T03:31:41.915Z,-0.30
2019-02-11T03:34:11.419Z,-0.30
2019-02-11T03:36:41.098Z,-0.30
2019-02-11T03:39:10.573Z,-0.30
2019-02-11T03:41:40.217Z,-0.10
2019-02-11T03:44:15.087Z,-0.10
2019-02-11T03:46:40.707Z,-0.10
2019-02-11T03:49:10.390Z,-0.10
2019-02-11T03:51:39.755Z,-0.10
2019-02-11T03:54:09.175Z,-0.10
2019-02-11T03:56:38.995Z,-0.10
2019-02-11T03:59:08.391Z,-0.20
2019-02-11T04:01:38.200Z,-0.30
2019-02-11T04:04:08.475Z,-0.40
2019-02-11T04:06:38.443Z,-0.40
2019-02-11T04:09:08.536Z,-0.30
2019-02-11T04:11:38.613Z,-0.20
2019-02-11T04:14:08.346Z,-0.20
2019-02-11T04:16:37.620Z,-0.20
2019-02-11T04:19:06.804Z,-0.30
2019-02-11T04:21:36.475Z,-0.10
2019-02-11T04:24:06.134Z,-0.10
2019-02-11T04:26:35.442Z,-0.10
2019-02-11T04:29:07.111Z,-0.10
2019-02-11T04:31:37.278Z,-0.10
2019-02-11T04:34:06.656Z,-0.10
2019-02-11T04:36:36.238Z,-0.10
2019-02-11T04:39:06.182Z,-0.10
2019-02-11T04:41:35.727Z,-0.20
2019-02-11T04:44:05.343Z,-0.20
2019-02-11T04:46:34.831Z,-0.10
2019-02-11T04:49:04.752Z,-0.20
2019-02-11T04:51:34.322Z,-0.10
2019-02-11T04:54:03.631Z,-0.10
2019-02-11T04:56:33.372Z,-0.20
2019-02-11T04:59:03.040Z,-0.30
2019-02-11T05:01:32.167Z,-0.30
2019-02-11T05:04:02.331Z,-0.30
2019-02-11T05:06:31.899Z,-0.20
2019-02-11T05:09:02.723Z,-0.30
2019-02-11T05:11:33.170Z,-0.40
2019-02-11T05:14:02.875Z,-0.40
2019-02-11T05:16:34.185Z,-0.30
2019-02-11T05:19:03.807Z,-0.40
2019-02-11T05:21:34.989Z,-0.30
2019-02-11T05:24:04.614Z,-0.30
2019-02-11T05:26:34.477Z,-0.30
2019-02-11T05:29:04.306Z,-0.30
2019-02-11T05:31:33.979Z,-0.50
2019-02-11T05:34:03.369Z,-0.50
2019-02-11T05:36:32.935Z,-0.50
2019-02-11T05:39:02.596Z,-0.60
2019-02-11T05:41:33.033Z,-0.60
2019-02-11T05:44:02.592Z,-0.60
2019-02-11T05:46:32.210Z,-0.70
2019-02-11T05:49:01.756Z,-0.70
2019-02-11T05:51:31.123Z,-0.70
2019-02-11T05:54:00.791Z,-0.70
2019-02-11T05:56:30.350Z,-0.80
2019-02-11T05:58:59.882Z,-0.70
2019-02-11T06:01:29.050Z,-0.70
2019-02-11T06:03:58.503Z,-0.60
2019-02-11T06:06:27.751Z,-0.60
2019-02-11T06:08:56.963Z,-0.60
2019-02-11T06:11:26.760Z,-0.70
2019-02-11T06:13:55.999Z,-0.70
2019-02-11T06:16:26.102Z,-0.70
2019-02-11T06:18:55.494Z,-0.70
2019-02-11T06:21:24.782Z,-0.70
2019-02-11T06:23:54.285Z,-0.70
2019-02-11T06:26:23.732Z,-0.60
2019-02-11T06:28:53.184Z,-0.60
2019-02-11T06:31:22.168Z,-0.70
2019-02-11T06:33:52.512Z,-0.70
2019-02-11T06:36:22.117Z,-0.70
2019-02-11T06:38:51.661Z,-0.70
2019-02-11T06:41:21.021Z,-0.80
2019-02-11T06:43:51.354Z,-0.70
2019-02-11T06:46:20.649Z,-0.70
2019-02-11T06:48:50.061Z,-0.80
2019-02-11T06:51:19.713Z,-0.70
2019-02-11T06:53:50.708Z,-0.70
2019-02-11T06:56:19.987Z,-0.70
2019-02-11T06:58:49.472Z,-0.70
2019-02-11T07:01:19.932Z,-0.60
2019-02-11T07:03:49.500Z,-0.60
2019-02-11T07:06:19.043Z,-0.60
2019-02-11T07:08:48.374Z,-0.60
2019-02-11T07:11:17.928Z,-0.60
2019-02-11T07:13:47.914Z,-0.60
2019-02-11T07:16:17.538Z,-0.60
2019-02-11T07:18:47.089Z,-0.60
2019-02-11T07:21:16.817Z,-0.60
2019-02-11T07:23:46.260Z,-0.60
2019-02-11T07:26:15.893Z,-0.60
2019-02-11T07:28:45.309Z,-0.60
2019-02-11T07:31:14.741Z,-0.60
2019-02-11T07:33:43.903Z,-0.60
2019-02-11T07:36:13.465Z,-0.50
2019-02-11T07:38:44.455Z,-0.50
2019-02-11T07:41:13.903Z,-0.50
2019-02-11T07:43:45.268Z,-0.50
2019-02-11T07:46:14.968Z,-0.50
2019-02-11T07:48:45.423Z,-0.50
2019-02-11T07:51:14.938Z,-0.50
2019-02-11T07:53:44.388Z,-0.60
2019-02-11T07:56:13.941Z,-0.60
2019-02-11T07:58:43.474Z,-0.60
2019-02-11T08:01:12.716Z,-0.60
2019-02-11T08:03:42.097Z,-0.60
2019-02-11T08:06:11.405Z,-0.60
2019-02-11T08:08:40.652Z,-0.70
2019-02-11T08:11:12.446Z,-0.70
2019-02-11T08:13:40.623Z,-0.70
2019-02-11T08:16:12.200Z,-0.60
2019-02-11T08:18:41.736Z,-0.70
2019-02-11T08:21:11.203Z,-0.70
2019-02-11T08:23:40.342Z,-0.70
2019-02-11T08:26:09.848Z,-0.80
2019-02-11T08:28:39.485Z,-0.80
2019-02-11T08:31:08.969Z,-0.70
2019-02-11T08:33:38.270Z,-0.80
2019-02-11T08:36:08.849Z,-1.00
2019-02-11T08:38:38.567Z,-1.10
2019-02-11T08:41:08.429Z,-1.10
2019-02-11T08:43:37.827Z,-1.20
2019-02-11T08:46:07.302Z,-1.20
2019-02-11T08:48:36.951Z,-1.40
2019-02-11T08:51:06.445Z,-1.30
2019-02-11T08:53:35.998Z,-1.40
2019-02-11T08:56:05.294Z,-1.40
2019-02-11T08:58:34.541Z,-1.40
2019-02-11T09:01:03.990Z,-1.40
2019-02-11T09:03:33.122Z,-1.50
2019-02-11T09:06:04.526Z,-1.60
2019-02-11T09:08:34.263Z,-1.60
2019-02-11T09:11:03.863Z,-1.70
2019-02-11T09:13:33.162Z,-1.70
2019-02-11T09:16:02.827Z,-1.80
2019-02-11T09:18:32.313Z,-1.90
2019-02-11T09:21:01.830Z,-2.00
2019-02-11T09:23:31.254Z,-2.10
2019-02-11T09:26:00.756Z,-2.10
2019-02-11T09:28:30.385Z,-2.20
2019-02-11T09:30:59.708Z,-2.20
2019-02-11T09:33:29.300Z,-2.30
2019-02-11T09:35:58.557Z,-2.30
2019-02-11T09:38:28.141Z,-2.40
2019-02-11T09:40:57.524Z,-2.50
2019-02-11T09:43:26.756Z,-2.50
2019-02-11T09:46:03.794Z,-2.50
2019-02-11T09:48:26.095Z,-2.60
2019-02-11T09:50:55.649Z,-2.70
2019-02-11T09:53:25.200Z,-2.70
2019-02-11T09:55:54.580Z,-2.70
2019-02-11T09:58:23.738Z,-2.80
2019-02-11T10:00:52.852Z,-2.80
2019-02-11T10:03:22.471Z,-2.80
2019-02-11T10:05:52.168Z,-2.90
2019-02-11T10:08:21.450Z,-2.90
2019-02-11T10:10:51.057Z,-2.90
2019-02-11T10:13:20.414Z,-3.00
2019-02-11T10:15:52.481Z,-3.10
2019-02-11T10:18:21.929Z,-3.10
2019-02-11T10:20:51.897Z,-3.10
2019-02-11T10:23:23.394Z,-3.10
2019-02-11T10:25:53.050Z,-3.20
2019-02-11T10:28:22.434Z,-3.20
2019-02-11T10:30:51.673Z,-3.20
2019-02-11T10:33:21.079Z,-3.20
2019-02-11T10:35:50.623Z,-3.30
2019-02-11T10:38:20.249Z,-3.30
2019-02-11T10:40:50.085Z,-3.30
2019-02-11T10:43:20.566Z,-3.30
2019-02-11T10:45:50.171Z,-3.30
2019-02-11T10:48:19.641Z,-3.40
2019-02-11T10:50:49.914Z,-3.40
2019-02-11T10:53:19.091Z,-3.40
2019-02-11T10:55:48.499Z,-3.40
2019-02-11T10:58:17.678Z,-3.40
2019-02-11T11:00:47.303Z,-3.50
2019-02-11T11:03:16.742Z,-3.50
2019-02-11T11:05:46.159Z,-3.60
2019-02-11T11:08:15.964Z,-3.60
2019-02-11T11:10:45.517Z,-3.60
2019-02-11T11:13:15.508Z,-3.70
2019-02-11T11:15:45.114Z,-3.80
2019-02-11T11:18:14.626Z,-3.80
2019-02-11T11:20:43.920Z,-3.80
2019-02-11T11:23:15.194Z,-3.90
2019-02-11T11:25:44.793Z,-3.90
2019-02-11T11:28:14.617Z,-4.00
2019-02-11T11:30:44.122Z,-4.00
2019-02-11T11:33:13.513Z,-4.00
2019-02-11T11:35:42.838Z,-4.10
2019-02-11T11:38:12.409Z,-4.10
2019-02-11T11:40:42.135Z,-4.10
2019-02-11T11:43:11.622Z,-4.10
2019-02-11T11:45:41.312Z,-4.10
2019-02-11T11:48:10.567Z,-4.10
2019-02-11T11:50:40.005Z,-4.20
2019-02-11T11:53:09.541Z,-4.20
2019-02-11T11:55:39.050Z,-4.20
2019-02-11T11:58:08.685Z,-4.20
2019-02-11T12:00:38.292Z,-4.20
2019-02-11T12:03:07.904Z,-4.20
2019-02-11T12:05:37.397Z,-4.20
2019-02-11T12:08:06.628Z,-4.30
2019-02-11T12:10:36.007Z,-4.30
2019-02-11T12:13:21.443Z,-4.30
2019-02-11T12:15:35.549Z,-4.30
2019-02-11T12:18:05.116Z,-4.40
2019-02-11T12:20:34.652Z,-4.40
2019-02-11T12:23:05.185Z,-4.50
2019-02-11T12:25:34.880Z,-4.50
2019-02-11T12:28:04.283Z,-4.50
2019-02-11T12:30:33.803Z,-4.50
2019-02-11T12:33:03.217Z,-4.50
2019-02-11T12:35:32.417Z,-4.50
2019-02-11T12:38:01.980Z,-4.60
2019-02-11T12:40:31.282Z,-4.50
2019-02-11T12:43:01.149Z,-4.60
2019-02-11T12:45:30.516Z,-4.60
2019-02-11T12:48:00.058Z,-4.60
2019-02-11T12:50:29.261Z,-4.60
2019-02-11T12:52:58.910Z,-4.70
2019-02-11T12:55:28.329Z,-4.70
2019-02-11T12:57:57.788Z,-4.70
2019-02-11T13:00:27.365Z,-4.80
2019-02-11T13:02:57.031Z,-4.70
2019-02-11T13:05:43.407Z,-4.80
2019-02-11T13:07:56.284Z,-4.80
2019-02-11T13:10:25.623Z,-4.80
2019-02-11T13:12:56.025Z,-4.90
2019-02-11T13:15:57.855Z,-4.90
2019-02-11T13:17:55.603Z,-5.00
2019-02-11T13:20:25.137Z,-5.00
2019-02-11T13:22:54.495Z,-5.00
2019-02-11T13:25:24.063Z,-5.00
2019-02-11T13:27:53.888Z,-5.00
2019-02-11T13:30:25.153Z,-5.10
2019-02-11T13:32:54.667Z,-5.10
2019-02-11T13:35:24.321Z,-5.10
2019-02-11T13:37:55.064Z,-5.10
2019-02-11T13:40:23.716Z,-5.10
2019-02-11T13:42:53.768Z,-5.20
2019-02-11T13:45:23.534Z,-5.20
2019-02-11T13:47:57.141Z,-5.20
2019-02-11T13:50:27.476Z,-5.30
2019-02-11T13:52:56.995Z,-5.30
2019-02-11T13:55:30.142Z,-5.30
2019-02-11T13:57:56.260Z,-5.30
2019-02-11T14:00:35.843Z,-5.40
2019-02-11T14:03:06.170Z,-5.40
2019-02-11T14:05:35.695Z,-5.40
2019-02-11T14:08:05.393Z,-5.40
2019-02-11T14:10:34.913Z,-5.40
2019-02-11T14:13:04.750Z,-5.40
2019-02-11T14:15:34.200Z,-5.40
2019-02-11T14:18:13.207Z,-5.40
2019-02-11T14:20:36.902Z,-5.40
2019-02-11T14:23:06.676Z,-5.50
2019-02-11T14:25:44.474Z,-5.40
2019-02-11T14:28:06.622Z,-5.40
2019-02-11T14:30:36.396Z,-5.40
2019-02-11T14:33:06.012Z,-5.40
2019-02-11T14:35:35.622Z,-5.40
2019-02-11T14:38:05.162Z,-5.30
2019-02-11T14:40:34.759Z,-5.30
2019-02-11T14:43:04.008Z,-5.20
2019-02-11T14:45:33.565Z,-5.20
2019-02-11T14:48:03.158Z,-5.20
2019-02-11T14:50:32.734Z,-5.20
2019-02-11T14:53:02.130Z,-5.20
2019-02-11T14:55:31.761Z,-5.20
2019-02-11T14:58:01.428Z,-5.20
2019-02-11T15:00:30.999Z,-5.20
2019-02-11T15:03:00.457Z,-5.20
2019-02-11T15:05:29.749Z,-5.20
2019-02-11T15:07:59.332Z,-5.20
2019-02-11T15:10:28.840Z,-5.20
2019-02-11T15:12:58.437Z,-5.20
2019-02-11T15:15:27.495Z,-5.30
2019-02-11T15:17:56.789Z,-5.20
2019-02-11T15:20:26.254Z,-5.20
2019-02-11T15:22:55.733Z,-5.20
2019-02-11T15:25:26.274Z,-5.20
2019-02-11T15:27:55.711Z,-5.30
2019-02-11T15:30:25.656Z,-5.20
2019-02-11T15:32:55.247Z,-5.20
2019-02-11T15:35:24.630Z,-5.10
2019-02-11T15:37:54.154Z,-5.10
2019-02-11T15:40:23.787Z,-5.00
2019-02-11T15:42:54.462Z,-4.90
2019-02-11T15:45:24.368Z,-4.80
2019-02-11T15:47:53.854Z,-4.70
2019-02-11T15:50:23.222Z,-4.70
2019-02-11T15:52:52.590Z,-4.70
2019-02-11T15:55:23.112Z,-4.60
2019-02-11T15:57:52.955Z,-4.60
2019-02-11T16:00:22.856Z,-4.50
2019-02-11T16:02:53.087Z,-4.60
2019-02-11T16:05:27.493Z,-4.50
2019-02-11T16:07:57.573Z,-4.40
2019-02-11T16:10:29.859Z,-4.20
2019-02-11T16:12:59.286Z,-4.30
2019-02-11T16:15:28.675Z,-4.30
2019-02-11T16:17:57.951Z,-4.40
2019-02-11T16:20:27.566Z,-4.20
2019-02-11T16:22:56.883Z,-4.10
2019-02-11T16:25:26.585Z,-3.90
2019-02-11T16:27:57.911Z,-3.70
2019-02-11T16:30:26.268Z,-2.50
2019-02-11T16:32:55.623Z,-2.10
2019-02-11T16:35:25.205Z,-2.40
2019-02-11T16:37:54.514Z,-2.50
2019-02-11T16:40:28.111Z,-2.50
2019-02-11T16:42:57.814Z,-2.60
2019-02-11T16:45:27.605Z,-2.70
2019-02-11T16:47:56.813Z,-2.60
2019-02-11T16:50:27.166Z,-2.60
2019-02-11T16:52:57.166Z,-2.60
2019-02-11T16:55:26.894Z,-2.50
2019-02-11T16:57:56.154Z,-2.50
2019-02-11T17:00:25.471Z,-2.40
2019-02-11T17:02:54.938Z,-2.30
2019-02-11T17:05:24.423Z,-2.30
2019-02-11T17:07:53.957Z,-2.20
2019-02-11T17:10:24.260Z,-2.20
2019-02-11T17:12:53.536Z,-2.20
2019-02-11T17:15:23.800Z,-2.30
2019-02-11T17:17:53.346Z,-2.30
2019-02-11T17:20:23.785Z,-2.20
2019-02-11T17:22:53.438Z,-2.20
2019-02-11T17:25:24.514Z,-2.10
2019-02-11T17:27:54.018Z,-2.00
2019-02-11T17:30:27.087Z,-1.90
2019-02-11T17:32:57.695Z,-1.70
2019-02-11T17:35:27.259Z,-1.60
2019-02-11T17:37:56.738Z,-1.50
2019-02-11T17:40:26.063Z,-1.30
2019-02-11T17:42:55.449Z,-1.10
2019-02-11T17:45:27.055Z,-0.90
2019-02-11T17:47:56.697Z,-0.80
2019-02-11T17:50:27.142Z,-0.60
2019-02-11T17:52:58.197Z,-0.60
2019-02-11T17:55:27.807Z,-0.50
2019-02-11T17:57:57.344Z,-0.30
2019-02-11T18:00:33.164Z,0.00
2019-02-11T18:03:02.664Z,0.30
2019-02-11T18:05:32.285Z,0.50
2019-02-11T18:08:01.762Z,0.60
2019-02-11T18:10:31.102Z,0.70
2019-02-11T18:13:00.678Z,0.90
2019-02-11T18:15:30.180Z,1.00
2019-02-11T18:17:59.542Z,1.00
2019-02-11T18:20:28.994Z,1.20
2019-02-11T18:22:58.848Z,1.30
2019-02-11T18:25:28.540Z,1.30
2019-02-11T18:27:57.869Z,1.30
2019-02-11T18:30:27.210Z,1.40
2019-02-11T18:32:56.820Z,1.40
2019-02-11T18:35:26.702Z,1.50
2019-02-11T18:37:55.711Z,1.30
2019-02-11T18:40:25.106Z,1.30
2019-02-11T18:42:54.593Z,1.30
2019-02-11T18:45:25.043Z,1.60
2019-02-11T18:47:55.553Z,1.80
2019-02-11T18:50:25.151Z,2.20
2019-02-11T18:52:54.701Z,2.90
2019-02-11T18:55:24.289Z,3.40
2019-02-11T18:57:55.172Z,3.60
2019-02-11T19:00:25.581Z,4.70
2019-02-11T19:02:55.825Z,4.60
2019-02-11T19:05:25.385Z,5.20
2019-02-11T19:07:54.810Z,5.60
2019-02-11T19:10:24.362Z,6.00
2019-02-11T19:12:54.844Z,6.10
2019-02-11T19:15:25.046Z,5.90
2019-02-11T19:17:54.636Z,5.80
2019-02-11T19:20:24.277Z,5.70
2019-02-11T19:22:53.858Z,5.60
2019-02-11T19:25:23.294Z,5.80
2019-02-11T19:27:54.189Z,6.10
2019-02-11T19:30:24.278Z,6.00
2019-02-11T19:32:53.917Z,7.00
2019-02-11T19:35:23.512Z,9.10
2019-02-11T19:37:53.995Z,9.90
2019-02-11T19:40:23.420Z,10.30
2019-02-11T19:42:53.401Z,10.30
2019-02-11T19:45:23.494Z,10.30
2019-02-11T19:47:53.018Z,9.90
2019-02-11T19:50:22.519Z,9.30
2019-02-11T19:52:52.230Z,8.80
2019-02-11T19:55:21.842Z,8.20
2019-02-11T19:57:51.168Z,7.60
2019-02-11T20:00:22.396Z,6.80
2019-02-11T20:02:51.743Z,6.30
2019-02-11T20:05:21.078Z,5.90
2019-02-11T20:07:50.532Z,5.60
2019-02-11T20:10:21.821Z,5.20
2019-02-11T20:12:51.426Z,5.10
2019-02-11T20:15:22.134Z,4.90
2019-02-11T20:17:51.682Z,4.90
2019-02-11T20:20:21.293Z,4.80
2019-02-11T20:22:51.818Z,4.90
2019-02-11T20:25:21.268Z,4.80
2019-02-11T20:27:51.595Z,5.10
2019-02-11T20:30:23.676Z,5.10
2019-02-11T20:32:53.397Z,5.40
2019-02-11T20:35:23.516Z,5.40
2019-02-11T20:37:53.934Z,5.60
2019-02-11T20:40:23.721Z,5.80
2019-02-11T20:42:53.446Z,5.90
2019-02-11T20:45:24.553Z,6.10
2019-02-11T20:47:54.769Z,6.10
2019-02-11T20:50:24.287Z,6.00
2019-02-11T20:52:53.837Z,5.60
2019-02-11T20:55:23.155Z,5.30
2019-02-11T20:57:53.809Z,5.00
2019-02-11T21:00:23.617Z,4.90
2019-02-11T21:02:53.113Z,4.70
2019-02-11T21:05:22.288Z,4.60
2019-02-11T21:07:51.890Z,4.50
2019-02-11T21:10:22.014Z,4.40
2019-02-11T21:12:51.270Z,4.30
2019-02-11T21:15:20.774Z,4.30
2019-02-11T21:17:50.334Z,4.10
2019-02-11T21:20:23.032Z,4.10
2019-02-11T21:22:53.017Z,4.00
2019-02-11T21:25:22.798Z,3.90
2019-02-11T21:27:52.244Z,3.90
2019-02-11T21:30:22.731Z,4.10
2019-02-11T21:32:52.344Z,4.10
2019-02-11T21:35:22.558Z,4.10
2019-02-11T21:37:51.949Z,4.10
2019-02-11T21:40:21.673Z,4.10
2019-02-11T21:42:51.460Z,4.40
2019-02-11T21:45:20.807Z,4.30
2019-02-11T21:47:50.504Z,4.00
2019-02-11T21:50:26.468Z,3.80
2019-02-11T21:52:50.682Z,4.00
2019-02-11T21:55:22.532Z,4.30
2019-02-11T21:57:52.115Z,4.20
2019-02-11T22:00:22.634Z,4.10
2019-02-11T22:02:53.026Z,4.10
2019-02-11T22:05:22.586Z,4.00
2019-02-11T22:07:52.411Z,3.90
2019-02-11T22:10:23.123Z,3.80
2019-02-11T22:12:52.756Z,3.90
2019-02-11T22:15:22.325Z,3.70
2019-02-11T22:17:52.278Z,3.60
2019-02-11T22:20:22.337Z,3.60
2019-02-11T22:22:51.991Z,3.60
2019-02-11T22:25:21.484Z,3.50
2019-02-11T22:27:52.165Z,3.30
2019-02-11T22:30:22.173Z,3.30
2019-02-11T22:32:51.537Z,3.20
2019-02-11T22:35:21.038Z,3.30
2019-02-11T22:37:51.002Z,3.30
2019-02-11T22:40:20.531Z,3.30
2019-02-11T22:42:50.301Z,3.30
2019-02-11T22:45:23.512Z,3.10
2019-02-11T22:47:53.067Z,3.10
2019-02-11T22:50:22.649Z,3.00
2019-02-11T22:52:52.310Z,3.10
2019-02-11T22:55:21.763Z,3.00
2019-02-11T22:57:51.161Z,2.90
2019-02-11T23:00:28.405Z,2.90
2019-02-11T23:02:58.074Z,2.80
2019-02-11T23:05:27.448Z,2.80
2019-02-11T23:07:56.888Z,2.70
2019-02-11T23:10:26.404Z,2.70
2019-02-11T23:12:57.235Z,2.80
2019-02-11T23:15:27.427Z,2.80
2019-02-11T23:17:56.886Z,2.80
2019-02-11T23:20:26.229Z,2.70
2019-02-11T23:22:55.737Z,2.70
2019-02-11T23:25:25.245Z,2.70
2019-02-11T23:27:54.544Z,2.70
2019-02-11T23:30:25.653Z,2.60
2019-02-11T23:32:55.234Z,2.60
2019-02-11T23:35:24.507Z,2.60
2019-02-11T23:37:54.230Z,2.60
2019-02-11T23:40:23.717Z,2.40
2019-02-11T23:42:53.558Z,2.40
2019-02-11T23:45:23.530Z,2.40
2019-02-11T23:47:52.978Z,2.40
2019-02-11T23:50:23.080Z,2.40
2019-02-11T23:52:53.329Z,2.40
2019-02-11T23:55:22.869Z,2.30
2019-02-11T23:57:52.281Z,2.20
